Time;durP1;ratioP1;P1;durP2;ratioP2;P2;SDS_P1;SDS_P2;PMS_P1;PMS_P2;Temp;Humidity;BMP_temperature;BMP_pressure;BME280_temperature;BME280_humidity;BME280_pressure;Samples;Min_cycle;Max_cycle;Signal;HPM_P1;HPM_P2
2023/05/08 00:00:35;;;;;;;1.33;1.23;;;;;13.70;96245.00;;;;5053450;28;20215;-59
2023/05/08 00:03:03;;;;;;;1.03;1.03;;;;;13.70;96244.00;;;;5053078;28;20662;-57
2023/05/08 00:05:30;;;;;;;0.53;0.53;;;;;13.70;96243.00;;;;5036011;28;20211;-57
2023/05/08 00:08:00;;;;;;;0.90;0.90;;;;;13.70;96243.00;;;;5053898;28;20204;-56
2023/05/08 00:10:29;;;;;;;2.00;1.17;;;;;13.60;96251.00;;;;5053556;28;20188;-57
2023/05/08 00:12:57;;;;;;;0.87;0.87;;;;;13.60;96248.00;;;;5053970;28;20211;-57
2023/05/08 00:15:25;;;;;;;0.90;0.90;;;;;13.60;96248.00;;;;5053698;28;20196;-56
2023/05/08 00:17:52;;;;;;;0.80;0.80;;;;;13.60;96250.00;;;;5052951;28;20196;-56
2023/05/08 00:20:20;;;;;;;1.10;1.10;;;;;13.70;96252.00;;;;5054676;28;20227;-56
2023/05/08 00:22:47;;;;;;;2.13;2.03;;;;;13.70;96254.00;;;;5057325;28;20211;-56
2023/05/08 00:25:15;;;;;;;1.73;1.60;;;;;13.70;96246.00;;;;5057339;28;20207;-56
2023/05/08 00:27:43;;;;;;;1.27;1.27;;;;;13.70;96253.00;;;;5057531;28;20203;-56
2023/05/08 00:30:12;;;;;;;1.30;1.27;;;;;13.70;96251.00;;;;5056924;28;20257;-56
2023/05/08 00:32:39;;;;;;;9.03;2.17;;;;;13.80;96252.00;;;;5057162;28;20220;-56
2023/05/08 00:35:07;;;;;;;1.10;1.10;;;;;13.70;96247.00;;;;5056912;28;20658;-56
2023/05/08 00:37:36;;;;;;;1.60;1.50;;;;;13.70;96252.00;;;;5057132;28;20199;-56
2023/05/08 00:40:04;;;;;;;1.57;1.47;;;;;13.70;96260.00;;;;5056744;28;20273;-56
2023/05/08 00:42:31;;;;;;;1.20;1.20;;;;;13.70;96250.00;;;;5056986;28;20590;-56
2023/05/08 00:45:00;;;;;;;1.03;1.03;;;;;13.70;96252.00;;;;5057035;28;20257;-56
2023/05/08 00:47:29;;;;;;;1.70;1.60;;;;;13.70;96250.00;;;;5056618;28;20227;-56
2023/05/08 00:49:57;;;;;;;1.67;1.57;;;;;13.70;96252.00;;;;5056625;28;20192;-56
2023/05/08 00:52:25;;;;;;;1.43;1.33;;;;;13.70;96255.00;;;;5056413;28;20223;-56
2023/05/08 00:54:53;;;;;;;0.90;0.90;;;;;13.70;96250.00;;;;5056802;28;20561;-57
2023/05/08 00:57:22;;;;;;;2.10;2.00;;;;;13.70;96257.00;;;;5056712;28;20192;-57
2023/05/08 00:59:50;;;;;;;0.70;0.70;;;;;13.70;96257.00;;;;5056458;28;20195;-57
2023/05/08 01:02:19;;;;;;;1.00;1.00;;;;;13.60;96252.00;;;;5038403;28;20593;-57
2023/05/08 01:04:48;;;;;;;1.70;1.60;;;;;13.70;96255.00;;;;5056329;28;20192;-57
2023/05/08 01:07:15;;;;;;;1.30;1.27;;;;;13.70;96249.00;;;;5056260;28;20192;-57
2023/05/08 01:09:43;;;;;;;1.73;1.63;;;;;13.60;96257.00;;;;5056312;28;20196;-57
2023/05/08 01:12:17;;;;;;;1.70;1.60;;;;;13.70;96254.00;;;;5056462;28;20208;-56
2023/05/08 01:14:57;;;;;;;1.60;1.50;;;;;13.70;96248.00;;;;5056549;28;20176;-56
2023/05/08 01:17:35;;;;;;;2.07;1.97;;;;;13.70;96253.00;;;;5056683;28;20202;-57
2023/05/08 01:20:17;;;;;;;1.07;0.97;;;;;13.70;96250.00;;;;5056406;28;20178;-57
2023/05/08 01:23:24;;;;;;;1.07;1.07;;;;;13.60;96268.00;;;;5056261;28;20227;-56
2023/05/08 01:26:27;;;;;;;1.00;0.97;;;;;13.60;96251.00;;;;5056342;28;20203;-57
2023/05/08 01:29:34;;;;;;;0.60;0.60;;;;;13.50;96248.00;;;;5053468;28;20207;-57
2023/05/08 01:32:20;;;;;;;0.97;0.97;;;;;13.40;96257.00;;;;5054724;28;20230;-57
2023/05/08 01:34:54;;;;;;;0.83;0.83;;;;;13.30;96260.00;;;;5056406;28;20181;-57
2023/05/08 01:37:29;;;;;;;0.90;0.90;;;;;13.30;96260.00;;;;5055803;28;20195;-57
2023/05/08 01:40:07;;;;;;;1.10;1.00;;;;;13.30;96255.00;;;;5056029;28;20257;-57
2023/05/08 01:42:43;;;;;;;1.60;1.50;;;;;13.30;96257.00;;;;5055603;28;20704;-57
2023/05/08 01:45:14;;;;;;;1.17;1.13;;;;;13.40;96259.00;;;;5055937;28;20184;-57
2023/05/08 01:47:44;;;;;;;1.13;1.13;;;;;13.30;96258.00;;;;5056186;28;20188;-57
2023/05/08 01:50:18;;;;;;;2.63;1.80;;;;;13.30;96258.00;;;;5056355;28;20677;-57
2023/05/08 01:52:49;;;;;;;1.33;1.33;;;;;13.40;96259.00;;;;5069413;22;20601;-58
2023/05/08 01:55:21;;;;;;;1.23;1.23;;;;;13.40;96265.00;;;;5055761;28;20188;-56
2023/05/08 01:57:51;;;;;;;1.23;1.23;;;;;13.50;96262.00;;;;5037512;28;20519;-56
2023/05/08 02:00:22;;;;;;;1.23;1.23;;;;;13.50;96256.00;;;;5055661;28;20180;-56
2023/05/08 02:02:52;;;;;;;1.77;1.67;;;;;13.50;96259.00;;;;5055677;28;20631;-56
2023/05/08 02:05:21;;;;;;;1.50;1.40;;;;;13.50;96263.00;;;;5054014;28;20206;-57
2023/05/08 02:07:51;;;;;;;1.53;1.40;;;;;13.40;96260.00;;;;5055223;28;20200;-57
2023/05/08 02:10:21;;;;;;;1.23;1.13;;;;;13.40;96268.00;;;;5037317;28;20188;-57
2023/05/08 02:12:50;;;;;;;0.80;0.80;;;;;13.50;96270.00;;;;5055019;28;20208;-57
2023/05/08 02:15:19;;;;;;;0.83;0.83;;;;;13.50;96267.00;;;;5055349;28;20196;-57
2023/05/08 02:17:48;;;;;;;0.90;0.90;;;;;13.30;96270.00;;;;5055066;28;20290;-57
2023/05/08 02:20:18;;;;;;;1.23;0.87;;;;;13.40;96270.00;;;;5054916;28;20604;-57
2023/05/08 02:22:49;;;;;;;1.33;1.33;;;;;13.40;96263.00;;;;5054731;28;20224;-57
2023/05/08 02:25:18;;;;;;;0.60;0.60;;;;;13.40;96266.00;;;;5037008;28;20311;-57
2023/05/08 02:27:47;;;;;;;0.77;0.77;;;;;13.40;96266.00;;;;5054813;28;20249;-57
2023/05/08 02:30:16;;;;;;;0.60;0.60;;;;;13.40;96271.00;;;;5054732;28;20199;-57
2023/05/08 02:32:45;;;;;;;0.87;0.87;;;;;13.30;96272.00;;;;5054639;28;20212;-57
2023/05/08 02:35:14;;;;;;;0.60;0.60;;;;;13.30;96273.00;;;;5054689;28;20655;-57
2023/05/08 02:37:46;;;;;;;0.70;0.70;;;;;13.20;96273.00;;;;5054674;28;20196;-57
2023/05/08 02:40:16;;;;;;;0.70;0.70;;;;;13.20;96265.00;;;;5054955;28;20177;-57
2023/05/08 02:42:45;;;;;;;0.67;0.67;;;;;13.20;96273.00;;;;5054253;28;20228;-57
2023/05/08 02:45:13;;;;;;;0.60;0.60;;;;;13.20;96267.00;;;;5054528;28;20192;-57
2023/05/08 02:47:47;;;;;;;0.70;0.70;;;;;13.30;96277.00;;;;5036597;28;20196;-57
2023/05/08 02:50:19;;;;;;;0.70;0.70;;;;;13.40;96276.00;;;;5055121;28;20199;-58
2023/05/08 02:52:50;;;;;;;1.27;1.23;;;;;13.30;96276.00;;;;5054263;28;20230;-57
2023/05/08 02:55:32;;;;;;;0.70;0.70;;;;;13.20;96277.00;;;;5054684;28;20176;-58
2023/05/08 02:58:11;;;;;;;0.83;0.83;;;;;13.10;96270.00;;;;5054592;28;20615;-58
2023/05/08 03:00:46;;;;;;;1.23;1.17;;;;;13.10;96267.00;;;;5054781;28;20187;-58
2023/05/08 03:03:19;;;;;;;0.80;0.80;;;;;13.10;96268.00;;;;5054163;28;20305;-58
2023/05/08 03:05:51;;;;;;;0.93;0.93;;;;;13.10;96268.00;;;;5054701;28;20191;-57
2023/05/08 03:08:25;;;;;;;1.00;1.00;;;;;13.10;96267.00;;;;5054101;28;20705;-57
2023/05/08 03:10:56;;;;;;;0.70;0.70;;;;;13.10;96262.00;;;;5054831;28;20183;-58
2023/05/08 03:13:25;;;;;;;0.70;0.70;;;;;13.20;96264.00;;;;5054249;28;20216;-56
2023/05/08 03:15:55;;;;;;;1.53;1.43;;;;;13.20;96261.00;;;;5036048;28;20196;-56
2023/05/08 03:18:26;;;;;;;0.60;0.60;;;;;13.20;96258.00;;;;5053885;28;20196;-57
2023/05/08 03:20:57;;;;;;;0.60;0.60;;;;;13.20;96263.00;;;;5054309;28;20185;-58
2023/05/08 03:23:29;;;;;;;0.97;0.97;;;;;13.20;96256.00;;;;5035869;28;20687;-57
2023/05/08 03:25:59;;;;;;;1.13;1.13;;;;;13.20;96259.00;;;;5054090;28;20183;-57
2023/05/08 03:28:27;;;;;;;0.70;0.70;;;;;13.20;96260.00;;;;5054005;28;20192;-57
2023/05/08 03:30:57;;;;;;;0.77;0.77;;;;;13.20;96258.00;;;;5053890;28;20536;-58
2023/05/08 03:33:26;;;;;;;0.90;0.90;;;;;13.30;96264.00;;;;5054611;28;20216;-57
2023/05/08 03:35:54;;;;;;;0.80;0.80;;;;;13.30;96263.00;;;;5053600;28;20194;-57
2023/05/08 03:38:22;;;;;;;1.40;1.37;;;;;13.30;96262.00;;;;5053554;28;20196;-57
2023/05/08 03:40:51;;;;;;;1.00;1.00;;;;;13.30;96269.00;;;;5053515;28;20195;-58
2023/05/08 03:43:20;;;;;;;1.10;1.10;;;;;13.30;96259.00;;;;5053309;28;20220;-58
2023/05/08 03:45:47;;;;;;;1.60;1.50;;;;;13.40;96259.00;;;;5053688;28;20202;-58
2023/05/08 03:48:16;;;;;;;1.77;1.67;;;;;13.40;96257.00;;;;5035567;28;20207;-57
2023/05/08 03:50:44;;;;;;;1.07;1.07;;;;;13.40;96270.00;;;;5053404;28;20188;-57
2023/05/08 03:53:12;;;;;;;1.00;1.00;;;;;13.40;96269.00;;;;5053218;28;20223;-57
2023/05/08 03:55:40;;;;;;;1.87;1.77;;;;;13.30;96272.00;;;;5053011;28;20214;-57
2023/05/08 03:58:18;;;;;;;1.43;1.43;;;;;13.30;96269.00;;;;5053205;28;20198;-58
2023/05/08 04:00:58;;;;;;;0.77;0.77;;;;;13.30;96272.00;;;;5053252;28;20189;-57
2023/05/08 04:03:32;;;;;;;1.00;1.00;;;;;13.30;96269.00;;;;5053347;28;20222;-57
2023/05/08 04:06:06;;;;;;;1.37;1.27;;;;;13.30;96270.00;;;;5053482;28;20184;-57
2023/05/08 04:08:42;;;;;;;1.40;0.80;;;;;13.40;96266.00;;;;5035264;28;20192;-57
2023/05/08 04:11:18;;;;;;;0.97;0.97;;;;;13.30;96275.00;;;;5053441;28;20634;-57
2023/05/08 04:13:53;;;;;;;0.90;0.90;;;;;13.40;96274.00;;;;5053070;28;20824;-57
2023/05/08 04:16:26;;;;;;;0.60;0.60;;;;;13.40;96274.00;;;;5053076;28;20595;-57
2023/05/08 04:18:59;;;;;;;0.80;0.80;;;;;13.40;96287.00;;;;5053347;28;20184;-57
2023/05/08 04:21:30;;;;;;;0.93;0.93;;;;;13.40;96278.00;;;;5053416;28;20188;-57
2023/05/08 04:23:58;;;;;;;0.87;0.87;;;;;13.40;96277.00;;;;5052996;28;20187;-57
2023/05/08 04:26:26;;;;;;;0.93;0.90;;;;;13.40;96286.00;;;;5053057;28;20192;-57
2023/05/08 04:28:55;;;;;;;1.10;1.10;;;;;13.40;96289.00;;;;5034997;28;20196;-57
2023/05/08 04:31:24;;;;;;;0.97;0.97;;;;;13.50;96283.00;;;;5052822;28;20192;-57
2023/05/08 04:33:51;;;;;;;0.80;0.80;;;;;13.40;96288.00;;;;5052936;28;20192;-57
2023/05/08 04:36:19;;;;;;;2.23;1.77;;;;;13.40;96298.00;;;;5052891;28;20187;-57
2023/05/08 04:38:46;;;;;;;0.83;0.83;;;;;13.40;96293.00;;;;5053087;28;20207;-57
2023/05/08 04:41:14;;;;;;;1.03;1.03;;;;;13.40;96293.00;;;;5052783;28;20203;-59
2023/05/08 04:43:42;;;;;;;0.90;0.90;;;;;13.40;96290.00;;;;5052602;28;20288;-56
2023/05/08 04:46:11;;;;;;;0.80;0.80;;;;;13.40;96295.00;;;;5052741;28;20250;-56
2023/05/08 04:48:39;;;;;;;0.87;0.87;;;;;13.40;96296.00;;;;5052675;28;20245;-56
2023/05/08 04:51:06;;;;;;;0.70;0.70;;;;;13.40;96306.00;;;;5034822;28;20265;-59
2023/05/08 04:53:33;;;;;;;0.70;0.70;;;;;13.40;96306.00;;;;5052512;28;20219;-59
2023/05/08 04:56:01;;;;;;;1.27;1.27;;;;;13.30;96308.00;;;;5052646;28;20273;-57
2023/05/08 04:58:28;;;;;;;0.80;0.80;;;;;13.40;96302.00;;;;5052646;28;20196;-57
2023/05/08 05:00:56;;;;;;;0.80;0.80;;;;;13.40;96303.00;;;;5052880;28;20246;-57
2023/05/08 05:03:24;;;;;;;1.03;1.00;;;;;13.40;96309.00;;;;5052514;28;20289;-57
2023/05/08 05:05:58;;;;;;;1.13;1.03;;;;;13.40;96314.00;;;;5054029;28;20203;-57
2023/05/08 05:08:26;;;;;;;0.60;0.60;;;;;13.40;96311.00;;;;5056353;28;20639;-57
2023/05/08 05:10:53;;;;;;;1.33;1.23;;;;;13.40;96316.00;;;;5038326;28;20200;-57
2023/05/08 05:13:21;;;;;;;0.80;0.80;;;;;13.40;96309.00;;;;5056144;28;20283;-57
2023/05/08 05:15:50;;;;;;;1.40;1.10;;;;;13.40;96312.00;;;;5056310;28;20585;-57
2023/05/08 05:18:18;;;;;;;1.13;1.13;;;;;13.30;96316.00;;;;5056121;28;20198;-57
2023/05/08 05:20:46;;;;;;;0.80;0.80;;;;;13.30;96305.00;;;;5055990;28;20618;-57
2023/05/08 05:23:14;;;;;;;0.70;0.70;;;;;13.20;96315.00;;;;5055905;28;20220;-57
2023/05/08 05:25:41;;;;;;;0.70;0.70;;;;;13.10;96316.00;;;;5055973;28;20200;-57
2023/05/08 05:28:09;;;;;;;0.67;0.67;;;;;13.20;96313.00;;;;5056481;28;20682;-57
2023/05/08 05:30:36;;;;;;;0.87;0.87;;;;;13.20;96319.00;;;;5056400;28;20208;-57
2023/05/08 05:33:04;;;;;;;1.00;1.00;;;;;13.30;96324.00;;;;5055821;28;20204;-57
2023/05/08 05:35:31;;;;;;;0.87;0.87;;;;;13.30;96326.00;;;;5055757;28;20204;-57
2023/05/08 05:38:00;;;;;;;1.10;1.10;;;;;13.40;96322.00;;;;5055928;28;20545;-58
2023/05/08 05:40:27;;;;;;;0.93;0.93;;;;;13.50;96322.00;;;;5037750;28;20207;-57
2023/05/08 05:42:55;;;;;;;0.80;0.80;;;;;13.60;96320.00;;;;5055504;28;20250;-58
2023/05/08 05:45:22;;;;;;;1.10;1.10;;;;;13.60;96322.00;;;;5055611;28;20219;-57
2023/05/08 05:47:52;;;;;;;1.17;1.17;;;;;13.60;96322.00;;;;5055578;28;20192;-57
2023/05/08 05:50:21;;;;;;;1.30;1.20;;;;;13.70;96327.00;;;;5055490;28;20184;-57
2023/05/08 05:52:48;;;;;;;1.20;1.20;;;;;13.60;96335.00;;;;5055228;28;20226;-57
2023/05/08 05:55:17;;;;;;;0.90;0.90;;;;;13.60;96328.00;;;;5055370;28;20192;-57
2023/05/08 05:57:45;;;;;;;0.93;0.93;;;;;13.50;96319.00;;;;5055883;28;20192;-57
2023/05/08 06:00:13;;;;;;;0.77;0.77;;;;;13.40;96318.00;;;;5055832;28;20199;-57
2023/05/08 06:02:41;;;;;;;0.70;0.70;;;;;13.60;96322.00;;;;5055182;28;20223;-57
2023/05/08 06:05:09;;;;;;;0.90;0.90;;;;;13.70;96321.00;;;;5055186;28;20274;-57
2023/05/08 06:07:37;;;;;;;0.77;0.77;;;;;13.80;96334.00;;;;5055412;28;20200;-57
2023/05/08 06:10:05;;;;;;;1.00;1.00;;;;;13.80;96331.00;;;;5055336;28;20207;-57
2023/05/08 06:12:34;;;;;;;0.77;0.77;;;;;13.90;96335.00;;;;5055059;28;20208;-57
2023/05/08 06:15:01;;;;;;;0.90;0.90;;;;;13.90;96335.00;;;;5055563;28;20203;-57
2023/05/08 06:17:29;;;;;;;0.70;0.70;;;;;14.00;96337.00;;;;5028787;28;20223;-56
2023/05/08 06:19:56;;;;;;;1.03;0.90;;;;;14.00;96330.00;;;;5040271;28;20266;-56
2023/05/08 06:22:24;;;;;;;0.70;0.70;;;;;14.10;96344.00;;;;5048507;28;20314;-57
2023/05/08 06:24:52;;;;;;;0.90;0.90;;;;;14.10;96342.00;;;;5037936;28;20528;-56
2023/05/08 06:27:21;;;;;;;1.00;1.00;;;;;14.10;96346.00;;;;5033024;28;20223;-57
2023/05/08 06:29:51;;;;;;;1.10;1.10;;;;;14.00;96343.00;;;;5050954;28;20208;-57
2023/05/08 06:32:19;;;;;;;1.00;1.00;;;;;14.00;96345.00;;;;5052616;28;20303;-57
2023/05/08 06:34:50;;;;;;;0.90;0.90;;;;;14.10;96349.00;;;;5052636;28;20188;-57
2023/05/08 06:37:17;;;;;;;0.80;0.80;;;;;14.10;96347.00;;;;5029264;28;20197;-57
2023/05/08 06:39:45;;;;;;;0.57;0.57;;;;;14.30;96340.00;;;;5032899;28;20208;-57
2023/05/08 06:42:12;;;;;;;1.57;1.47;;;;;14.20;96344.00;;;;5031872;28;20223;-57
2023/05/08 06:44:39;;;;;;;1.07;1.07;;;;;14.30;96347.00;;;;5032937;28;20232;-57
2023/05/08 06:47:08;;;;;;;1.53;1.43;;;;;14.40;96344.00;;;;5032040;28;20231;-58
2023/05/08 06:49:36;;;;;;;1.10;1.10;;;;;14.30;96343.00;;;;5032757;28;20232;-57
2023/05/08 06:52:04;;;;;;;2.50;1.20;;;;;14.30;96345.00;;;;5014499;28;20327;-57
2023/05/08 06:54:31;;;;;;;1.33;1.33;;;;;14.30;96342.00;;;;5034585;28;20185;-57
2023/05/08 06:56:59;;;;;;;1.43;1.33;;;;;14.40;96336.00;;;;5049889;28;20207;-57
2023/05/08 06:59:26;;;;;;;1.17;1.17;;;;;14.40;96342.00;;;;5036873;28;20247;-57
2023/05/08 07:01:54;;;;;;;1.67;1.57;;;;;14.40;96337.00;;;;5033025;28;20220;-57
2023/05/08 07:04:22;;;;;;;5.30;1.70;;;;;14.50;96347.00;;;;5014546;28;20221;-57
2023/05/08 07:06:52;;;;;;;1.87;1.77;;;;;14.60;96347.00;;;;5032020;28;20200;-57
2023/05/08 07:09:20;;;;;;;1.70;1.60;;;;;14.40;96349.00;;;;5032118;28;20213;-58
2023/05/08 07:11:47;;;;;;;2.23;2.13;;;;;14.50;96340.00;;;;5031961;28;20229;-58
2023/05/08 07:14:15;;;;;;;1.00;0.97;;;;;14.40;96351.00;;;;5031993;28;20224;-58
2023/05/08 07:16:42;;;;;;;1.90;1.80;;;;;14.50;96347.00;;;;5031705;28;20231;-57
2023/05/08 07:19:10;;;;;;;1.73;1.63;;;;;14.60;96356.00;;;;5031749;28;20192;-57
2023/05/08 07:21:39;;;;;;;2.27;2.13;;;;;14.60;96350.00;;;;5031815;28;20196;-58
2023/05/08 07:24:07;;;;;;;1.60;1.50;;;;;14.60;96357.00;;;;5031841;28;20233;-57
2023/05/08 07:26:34;;;;;;;1.50;1.40;;;;;14.70;96350.00;;;;5031680;28;20254;-57
2023/05/08 07:29:02;;;;;;;1.50;1.40;;;;;14.80;96358.00;;;;5030965;28;20232;-57
2023/05/08 07:31:29;;;;;;;1.07;1.07;;;;;14.90;96349.00;;;;5031654;28;20219;-58
2023/05/08 07:33:57;;;;;;;1.93;1.83;;;;;14.90;96348.00;;;;5031768;28;20204;-57
2023/05/08 07:36:24;;;;;;;1.17;1.17;;;;;15.00;96349.00;;;;5031548;28;20210;-57
2023/05/08 07:38:53;;;;;;;1.60;1.50;;;;;15.20;96345.00;;;;5031772;28;20262;-58
2023/05/08 07:41:20;;;;;;;1.17;1.17;;;;;15.30;96346.00;;;;5031422;28;20203;-58
2023/05/08 07:43:48;;;;;;;2.43;2.23;;;;;15.60;96350.00;;;;5031242;28;20227;-58
2023/05/08 07:46:19;;;;;;;1.13;1.13;;;;;15.80;96355.00;;;;5031800;28;20197;-57
2023/05/08 07:48:46;;;;;;;2.00;1.90;;;;;15.80;96345.00;;;;5030959;28;20203;-58
2023/05/08 07:51:14;;;;;;;1.67;1.57;;;;;16.10;96352.00;;;;5031748;28;20224;-58
2023/05/08 07:53:42;;;;;;;2.23;2.00;;;;;16.30;96350.00;;;;5031182;28;20372;-57
2023/05/08 07:56:11;;;;;;;1.90;1.80;;;;;16.40;96347.00;;;;5031280;28;20204;-57
2023/05/08 07:58:39;;;;;;;1.10;1.10;;;;;16.40;96349.00;;;;5031167;28;20250;-58
2023/05/08 08:01:06;;;;;;;1.53;1.43;;;;;16.30;96349.00;;;;5031199;28;20196;-58
2023/05/08 08:03:34;;;;;;;1.80;1.70;;;;;16.30;96357.00;;;;5031022;28;20224;-59
2023/05/08 08:06:01;;;;;;;1.53;1.30;;;;;16.40;96358.00;;;;5031086;28;20192;-57
2023/05/08 08:08:28;;;;;;;0.80;0.80;;;;;16.30;96354.00;;;;5030955;28;20201;-58
2023/05/08 08:10:56;;;;;;;1.23;1.23;;;;;16.10;96354.00;;;;5031132;28;20207;-58
2023/05/08 08:13:25;;;;;;;0.80;0.80;;;;;16.00;96360.00;;;;5031330;28;20262;-57
2023/05/08 08:15:52;;;;;;;1.67;1.57;;;;;15.70;96357.00;;;;5030784;28;20271;-57
2023/05/08 08:18:20;;;;;;;1.00;1.00;;;;;15.50;96357.00;;;;5051719;28;20257;-57
2023/05/08 08:20:47;;;;;;;1.30;1.13;;;;;15.70;96361.00;;;;5032598;28;20199;-57
2023/05/08 08:23:14;;;;;;;1.00;1.00;;;;;15.60;96366.00;;;;5051166;28;20216;-58
2023/05/08 08:25:42;;;;;;;1.37;1.37;;;;;15.60;96367.00;;;;5046236;28;20540;-58
2023/05/08 08:28:09;;;;;;;0.67;0.67;;;;;15.70;96365.00;;;;5031412;28;20200;-57
2023/05/08 08:30:38;;;;;;;1.03;1.03;;;;;15.80;96366.00;;;;5048200;28;20658;-57
2023/05/08 08:33:06;;;;;;;1.23;1.23;;;;;15.80;96367.00;;;;5051299;28;20716;-57
2023/05/08 08:35:33;;;;;;;1.13;1.13;;;;;15.80;96363.00;;;;5050823;28;20551;-58
2023/05/08 08:38:01;;;;;;;0.93;0.93;;;;;15.90;96366.00;;;;5051194;28;20200;-57
2023/05/08 08:40:28;;;;;;;0.97;0.97;;;;;15.80;96370.00;;;;5050612;28;20202;-57
2023/05/08 08:42:56;;;;;;;1.67;1.57;;;;;15.80;96370.00;;;;5038079;28;20221;-58
2023/05/08 08:45:24;;;;;;;0.87;0.87;;;;;15.80;96369.00;;;;5034467;28;20274;-57
2023/05/08 08:47:53;;;;;;;0.93;0.93;;;;;15.80;96366.00;;;;5034714;28;20201;-58
2023/05/08 08:50:22;;;;;;;0.90;0.90;;;;;15.80;96369.00;;;;5034329;28;20197;-57
2023/05/08 08:53:00;;;;;;;0.80;0.80;;;;;15.80;96372.00;;;;5034840;28;20228;-58
2023/05/08 08:55:29;;;;;;;0.90;0.90;;;;;15.70;96370.00;;;;5046572;28;20201;-57
2023/05/08 08:58:06;;;;;;;0.77;0.77;;;;;15.50;96379.00;;;;5052366;28;20258;-57
2023/05/08 09:00:36;;;;;;;1.40;1.40;;;;;15.40;96378.00;;;;5034066;28;20188;-57
2023/05/08 09:03:06;;;;;;;2.87;1.43;;;;;15.30;96371.00;;;;5034624;28;20220;-57
2023/05/08 09:05:34;;;;;;;1.07;1.07;;;;;15.20;96382.00;;;;5034159;28;20247;-57
2023/05/08 09:08:02;;;;;;;1.13;1.13;;;;;15.10;96371.00;;;;5034247;28;20193;-58
2023/05/08 09:10:29;;;;;;;0.70;0.70;;;;;15.10;96375.00;;;;5034238;28;20559;-58
2023/05/08 09:12:57;;;;;;;0.83;0.83;;;;;15.00;96371.00;;;;5034126;28;20225;-58
2023/05/08 09:15:24;;;;;;;0.67;0.67;;;;;14.90;96380.00;;;;5034757;28;20577;-58
2023/05/08 09:17:52;;;;;;;0.70;0.70;;;;;14.80;96373.00;;;;5034062;28;20531;-58
2023/05/08 09:20:21;;;;;;;1.00;1.00;;;;;14.80;96384.00;;;;5034005;28;20211;-58
2023/05/08 09:22:50;;;;;;;0.93;0.93;;;;;14.90;96379.00;;;;5033969;28;20290;-58
2023/05/08 09:25:17;;;;;;;0.77;0.77;;;;;14.80;96349.00;;;;5049389;28;20273;-57
2023/05/08 09:27:48;;;;;;;0.90;0.90;;;;;14.80;96385.00;;;;5054324;28;20188;-58
2023/05/08 09:30:15;;;;;;;1.13;1.00;;;;;14.80;96386.00;;;;5053597;28;20200;-57
2023/05/08 09:32:44;;;;;;;0.50;0.50;;;;;14.80;96389.00;;;;5054048;28;20307;-57
2023/05/08 09:35:12;;;;;;;0.80;0.80;;;;;14.80;96386.00;;;;5053520;28;20196;-57
2023/05/08 09:37:42;;;;;;;1.03;1.00;;;;;14.90;96392.00;;;;5054404;28;20647;-57
2023/05/08 09:40:20;;;;;;;0.80;0.80;;;;;15.00;96390.00;;;;5053767;28;20262;-57
2023/05/08 09:42:49;;;;;;;1.00;1.00;;;;;15.10;96389.00;;;;5054064;28;20227;-57
2023/05/08 09:45:38;;;;;;;0.80;0.80;;;;;15.10;96400.00;;;;5053266;28;20218;-57
2023/05/08 09:48:06;;;;;;;0.50;0.50;;;;;15.20;96392.00;;;;5049784;28;20290;-57
2023/05/08 09:50:34;;;;;;;2.43;1.13;;;;;15.20;96393.00;;;;5053152;28;20195;-57
2023/05/08 09:53:02;;;;;;;1.03;0.97;;;;;15.20;96395.00;;;;5053004;28;20223;-58
2023/05/08 09:55:47;;;;;;;1.17;1.17;;;;;15.20;96391.00;;;;5053120;28;20275;-57
2023/05/08 09:58:14;;;;;;;1.23;1.13;;;;;15.00;96392.00;;;;5053496;28;20195;-57
2023/05/08 10:00:42;;;;;;;0.83;0.83;;;;;15.10;96393.00;;;;5053224;28;20200;-58
2023/05/08 10:03:09;;;;;;;0.93;0.70;;;;;15.20;96395.00;;;;5053481;28;20216;-57
2023/05/08 10:05:37;;;;;;;0.63;0.63;;;;;15.30;96396.00;;;;5039783;28;20207;-57
2023/05/08 10:08:21;;;;;;;0.93;0.93;;;;;15.40;96399.00;;;;5033718;28;20197;-57
2023/05/08 10:10:48;;;;;;;1.17;1.17;;;;;15.40;96398.00;;;;5033562;28;20601;-58
2023/05/08 10:13:16;;;;;;;0.60;0.60;;;;;15.40;96404.00;;;;5033465;28;20217;-58
2023/05/08 10:15:44;;;;;;;0.80;0.80;;;;;15.40;96407.00;;;;5032780;28;20223;-57
2023/05/08 10:18:13;;;;;;;0.63;0.63;;;;;15.40;96401.00;;;;5045893;28;20204;-57
2023/05/08 10:20:43;;;;;;;0.70;0.70;;;;;15.30;96401.00;;;;5052239;28;20203;-57
2023/05/08 10:23:16;;;;;;;0.90;0.90;;;;;15.20;96405.00;;;;5053302;28;20218;-56
2023/05/08 10:25:47;;;;;;;0.90;0.90;;;;;15.20;96403.00;;;;5052199;28;20205;-56
2023/05/08 10:28:22;;;;;;;1.60;0.90;;;;;15.30;96404.00;;;;5053198;28;20192;-56
2023/05/08 10:30:50;;;;;;;0.70;0.70;;;;;15.40;96403.00;;;;5052054;28;20192;-55
2023/05/08 10:33:21;;;;;;;0.90;0.90;;;;;15.40;96394.00;;;;5033098;28;20262;-56
2023/05/08 10:35:49;;;;;;;0.70;0.70;;;;;15.60;96398.00;;;;5032371;28;20239;-60
2023/05/08 10:38:17;;;;;;;0.77;0.77;;;;;15.70;96394.00;;;;5033073;28;20196;-56
2023/05/08 10:40:49;;;;;;;1.00;1.00;;;;;15.80;96397.00;;;;5032175;28;20203;-56
2023/05/08 10:43:17;;;;;;;0.97;0.97;;;;;15.80;96390.00;;;;5032805;28;20220;-57
2023/05/08 10:45:45;;;;;;;1.10;1.10;;;;;16.10;96391.00;;;;5032146;28;20193;-57
2023/05/08 10:48:24;;;;;;;1.50;1.00;;;;;16.30;96385.00;;;;5032168;28;20205;-57
2023/05/08 10:51:02;;;;;;;0.93;0.93;;;;;16.60;96392.00;;;;5032515;28;20203;-57
2023/05/08 10:53:36;;;;;;;0.87;0.87;;;;;16.70;96387.00;;;;5052500;28;20223;-57
2023/05/08 10:56:06;;;;;;;0.70;0.70;;;;;16.90;96382.00;;;;5052039;28;20189;-56
2023/05/08 10:58:36;;;;;;;0.70;0.70;;;;;17.00;96382.00;;;;5034818;28;20200;-56
2023/05/08 11:01:16;;;;;;;0.70;0.70;;;;;17.00;96377.00;;;;5050490;28;20288;-59
2023/05/08 11:03:46;;;;;;;0.97;0.97;;;;;17.30;96376.00;;;;5031567;28;20229;-57
2023/05/08 11:06:14;;;;;;;0.90;0.90;;;;;17.60;96366.00;;;;5032199;28;20203;-57
2023/05/08 11:08:51;;;;;;;1.30;1.30;;;;;17.90;96374.00;;;;5014666;28;20211;-57
2023/05/08 11:11:30;;;;;;;1.40;1.30;;;;;18.20;96365.00;;;;5014320;28;20200;-57
2023/05/08 11:14:12;;;;;;;1.77;1.67;;;;;18.20;96374.00;;;;5038843;28;20195;-58
2023/05/08 11:17:07;;;;;;;3.13;2.80;;;;;18.40;96363.00;;;;5051942;28;20188;-57
2023/05/08 11:19:36;;;;;;;2.50;2.27;;;;;18.50;96365.00;;;;5032286;28;20197;-57
2023/05/08 11:22:22;;;;;;;1.63;1.53;;;;;18.40;96371.00;;;;5032018;28;20223;-57
2023/05/08 11:24:52;;;;;;;1.60;1.13;;;;;18.50;96360.00;;;;5049406;28;20204;-57
2023/05/08 11:28:01;;;;;;;2.03;1.93;;;;;18.60;96365.00;;;;5051579;28;20246;-57
2023/05/08 11:30:37;;;;;;;0.90;0.90;;;;;18.40;96360.00;;;;5051604;28;20273;-58
2023/05/08 11:33:16;;;;;;;1.10;1.10;;;;;18.30;96360.00;;;;5031649;28;20223;-57
2023/05/08 11:35:46;;;;;;;1.23;1.20;;;;;18.10;96353.00;;;;5047947;28;20180;-57
2023/05/08 11:38:18;;;;;;;0.60;0.60;;;;;17.90;96360.00;;;;5051868;28;20192;-57
2023/05/08 11:40:53;;;;;;;1.10;1.10;;;;;17.80;96362.00;;;;5051548;28;20272;-57
2023/05/08 11:44:03;;;;;;;0.93;0.93;;;;;17.50;96357.00;;;;5014036;28;20228;-58
2023/05/08 11:46:40;;;;;;;1.30;1.20;;;;;17.40;96364.00;;;;5034612;28;20231;-58
2023/05/08 11:49:12;;;;;;;1.03;1.03;;;;;17.50;96364.00;;;;5051617;28;20657;-58
2023/05/08 11:51:43;;;;;;;0.90;0.90;;;;;17.60;96359.00;;;;5050752;28;20272;-58
2023/05/08 11:54:12;;;;;;;2.00;1.90;;;;;17.60;96356.00;;;;5051619;28;20196;-58
2023/05/08 11:56:40;;;;;;;0.93;0.93;;;;;17.50;96353.00;;;;5050802;28;20199;-58
2023/05/08 11:59:09;;;;;;;1.33;1.23;;;;;17.50;96361.00;;;;5051423;28;20291;-58
2023/05/08 12:01:38;;;;;;;1.43;1.37;;;;;17.70;96368.00;;;;5032824;28;20200;-57
2023/05/08 12:04:07;;;;;;;1.70;1.60;;;;;17.60;96360.00;;;;5051271;28;20219;-58
2023/05/08 12:06:36;;;;;;;1.70;1.30;;;;;17.70;96364.00;;;;5050644;28;20200;-58
2023/05/08 12:09:10;;;;;;;1.17;1.17;;;;;17.60;96364.00;;;;5051314;28;20192;-57
2023/05/08 12:11:38;;;;;;;0.70;0.70;;;;;17.50;96362.00;;;;5032718;28;20235;-58
2023/05/08 12:14:05;;;;;;;0.90;0.90;;;;;17.60;96360.00;;;;5051339;28;20192;-58
2023/05/08 12:16:38;;;;;;;1.70;1.43;;;;;17.60;96376.00;;;;5046317;28;20201;-57
2023/05/08 12:19:09;;;;;;;1.47;1.40;;;;;17.70;96370.00;;;;5031435;28;20192;-58
2023/05/08 12:21:36;;;;;;;1.20;1.17;;;;;17.50;96370.00;;;;5030577;28;20259;-58
2023/05/08 12:24:07;;;;;;;1.00;1.00;;;;;17.30;96361.00;;;;5031262;28;20682;-60
2023/05/08 12:26:36;;;;;;;0.97;0.97;;;;;17.10;96360.00;;;;5046694;28;20199;-58
2023/05/08 12:29:07;;;;;;;1.00;1.00;;;;;16.90;96373.00;;;;5051329;28;20230;-58
2023/05/08 12:31:36;;;;;;;1.03;1.03;;;;;16.70;96364.00;;;;5032446;28;20675;-58
2023/05/08 12:34:05;;;;;;;2.03;1.13;;;;;16.90;96359.00;;;;5050801;28;20202;-58